sensor_id;sensor_type;location;lat;lon;timestamp;temperature;humidity
15384;DHT22;7790;53.022;12.968;2023-04-01T00:02:19;19.60;52.20
15384;DHT22;7790;53.022;12.968;2023-04-01T00:06:20;19.60;52.20
15384;DHT22;7790;53.022;12.968;2023-04-01T00:10:21;19.60;52.20
15384;DHT22;7790;53.022;12.968;2023-04-01T00:14:22;19.60;52.20
15384;DHT22;7790;53.022;12.968;2023-04-01T00:18:25;19.60;52.20
15384;DHT22;7790;53.022;12.968;2023-04-01T00:22:27;19.60;52.20
15384;DHT22;7790;53.022;12.968;2023-04-01T00:26:28;19.60;52.30
15384;DHT22;7790;53.022;12.968;2023-04-01T00:30:29;19.60;52.40
15384;DHT22;7790;53.022;12.968;2023-04-01T00:34:29;19.60;52.30
15384;DHT22;7790;53.022;12.968;2023-04-01T00:38:30;19.50;52.30
15384;DHT22;7790;53.022;12.968;2023-04-01T00:42:31;19.50;52.30
15384;DHT22;7790;53.022;12.968;2023-04-01T00:46:32;19.50;52.30
15384;DHT22;7790;53.022;12.968;2023-04-01T00:50:34;19.50;52.30
15384;DHT22;7790;53.022;12.968;2023-04-01T00:54:36;19.50;52.40
15384;DHT22;7790;53.022;12.968;2023-04-01T00:58:41;19.50;52.40
15384;DHT22;7790;53.022;12.968;2023-04-01T01:02:44;19.40;52.40
15384;DHT22;7790;53.022;12.968;2023-04-01T01:11:05;19.40;52.30
15384;DHT22;7790;53.022;12.968;2023-04-01T01:28:29;19.40;52.20
15384;DHT22;7790;53.022;12.968;2023-04-01T01:37:10;19.40;52.40
15384;DHT22;7790;53.022;12.968;2023-04-01T01:41:12;19.30;52.30
15384;DHT22;7790;53.022;12.968;2023-04-01T01:45:19;19.30;52.40
15384;DHT22;7790;53.022;12.968;2023-04-01T01:49:21;19.30;52.30
15384;DHT22;7790;53.022;12.968;2023-04-01T01:53:23;19.30;52.30
15384;DHT22;7790;53.022;12.968;2023-04-01T01:57:34;19.30;52.20
15384;DHT22;7790;53.022;12.968;2023-04-01T02:01:42;19.30;52.40
15384;DHT22;7790;53.022;12.968;2023-04-01T02:05:49;19.30;52.30
15384;DHT22;7790;53.022;12.968;2023-04-01T02:09:51;19.30;52.30
15384;DHT22;7790;53.022;12.968;2023-04-01T02:13:58;19.20;52.20
15384;DHT22;7790;53.022;12.968;2023-04-01T02:18:03;19.20;52.30
15384;DHT22;7790;53.022;12.968;2023-04-01T02:22:08;19.20;52.30
15384;DHT22;7790;53.022;12.968;2023-04-01T02:26:12;19.20;52.30
15384;DHT22;7790;53.022;12.968;2023-04-01T02:30:15;19.20;52.30
15384;DHT22;7790;53.022;12.968;2023-04-01T02:34:16;19.20;52.40
15384;DHT22;7790;53.022;12.968;2023-04-01T02:38:18;19.20;52.20
15384;DHT22;7790;53.022;12.968;2023-04-01T02:42:18;19.20;52.30
15384;DHT22;7790;53.022;12.968;2023-04-01T02:46:19;19.10;52.20
15384;DHT22;7790;53.022;12.968;2023-04-01T02:50:20;19.20;52.30
15384;DHT22;7790;53.022;12.968;2023-04-01T02:54:22;19.10;52.20
15384;DHT22;7790;53.022;12.968;2023-04-01T02:58:24;19.10;52.20
15384;DHT22;7790;53.022;12.968;2023-04-01T03:02:25;19.10;52.20
15384;DHT22;7790;53.022;12.968;2023-04-01T03:06:26;19.10;52.20
15384;DHT22;7790;53.022;12.968;2023-04-01T03:10:27;19.10;52.20
15384;DHT22;7790;53.022;12.968;2023-04-01T03:14:28;19.10;52.20
15384;DHT22;7790;53.022;12.968;2023-04-01T03:18:31;19.10;52.20
15384;DHT22;7790;53.022;12.968;2023-04-01T03:22:33;19.10;52.20
15384;DHT22;7790;53.022;12.968;2023-04-01T03:26:34;19.10;52.20
15384;DHT22;7790;53.022;12.968;2023-04-01T03:30:35;19.10;52.10
15384;DHT22;7790;53.022;12.968;2023-04-01T03:34:36;19.10;52.20
15384;DHT22;7790;53.022;12.968;2023-04-01T03:38:38;19.00;52.20
15384;DHT22;7790;53.022;12.968;2023-04-01T03:42:39;19.10;52.30
15384;DHT22;7790;53.022;12.968;2023-04-01T03:46:40;19.00;52.30
15384;DHT22;7790;53.022;12.968;2023-04-01T03:50:42;19.00;52.20
15384;DHT22;7790;53.022;12.968;2023-04-01T03:54:43;19.00;52.40
15384;DHT22;7790;53.022;12.968;2023-04-01T03:58:44;19.00;52.20
15384;DHT22;7790;53.022;12.968;2023-04-01T04:02:46;19.00;52.30
15384;DHT22;7790;53.022;12.968;2023-04-01T04:06:53;19.00;52.50
15384;DHT22;7790;53.022;12.968;2023-04-01T04:10:56;19.00;52.90
15384;DHT22;7790;53.022;12.968;2023-04-01T04:14:57;19.00;52.30
15384;DHT22;7790;53.022;12.968;2023-04-01T04:18:59;19.00;52.30
15384;DHT22;7790;53.022;12.968;2023-04-01T04:23:00;18.90;52.30
15384;DHT22;7790;53.022;12.968;2023-04-01T04:27:01;19.00;52.30
15384;DHT22;7790;53.022;12.968;2023-04-01T04:31:03;19.00;52.30
15384;DHT22;7790;53.022;12.968;2023-04-01T04:35:07;18.90;52.30
15384;DHT22;7790;53.022;12.968;2023-04-01T04:39:09;18.90;52.30
15384;DHT22;7790;53.022;12.968;2023-04-01T04:43:14;18.90;52.30
15384;DHT22;7790;53.022;12.968;2023-04-01T04:47:16;18.90;52.50
15384;DHT22;7790;53.022;12.968;2023-04-01T04:51:19;18.90;52.30
15384;DHT22;7790;53.022;12.968;2023-04-01T04:55:21;18.80;52.40
15384;DHT22;7790;53.022;12.968;2023-04-01T04:59:31;18.80;52.40
15384;DHT22;7790;53.022;12.968;2023-04-01T05:03:38;18.90;52.90
15384;DHT22;7790;53.022;12.968;2023-04-01T05:07:39;19.10;52.50
15384;DHT22;7790;53.022;12.968;2023-04-01T05:11:40;19.30;52.40
15384;DHT22;7790;53.022;12.968;2023-04-01T05:15:41;19.60;52.50
15384;DHT22;7790;53.022;12.968;2023-04-01T05:19:43;19.80;52.40
15384;DHT22;7790;53.022;12.968;2023-04-01T05:23:44;20.00;52.20
15384;DHT22;7790;53.022;12.968;2023-04-01T05:27:44;20.10;53.30
15384;DHT22;7790;53.022;12.968;2023-04-01T05:31:45;20.20;52.80
15384;DHT22;7790;53.022;12.968;2023-04-01T05:35:47;20.20;52.90
15384;DHT22;7790;53.022;12.968;2023-04-01T05:39:48;20.20;53.20
15384;DHT22;7790;53.022;12.968;2023-04-01T05:43:49;20.20;53.10
15384;DHT22;7790;53.022;12.968;2023-04-01T05:48:22;20.20;53.60
15384;DHT22;7790;53.022;12.968;2023-04-01T05:52:24;20.20;52.40
15384;DHT22;7790;53.022;12.968;2023-04-01T05:56:25;20.20;52.20
15384;DHT22;7790;53.022;12.968;2023-04-01T06:00:26;20.20;52.40
15384;DHT22;7790;53.022;12.968;2023-04-01T06:04:28;20.00;52.30
15384;DHT22;7790;53.022;12.968;2023-04-01T06:08:32;20.00;53.00
15384;DHT22;7790;53.022;12.968;2023-04-01T06:12:42;20.00;52.80
15384;DHT22;7790;53.022;12.968;2023-04-01T06:16:52;19.90;53.00
15384;DHT22;7790;53.022;12.968;2023-04-01T06:25:55;19.90;53.10
15384;DHT22;7790;53.022;12.968;2023-04-01T06:30:16;19.90;52.70
15384;DHT22;7790;53.022;12.968;2023-04-01T06:47:23;20.60;51.50
15384;DHT22;7790;53.022;12.968;2023-04-01T06:56:28;20.90;51.40
15384;DHT22;7790;53.022;12.968;2023-04-01T07:00:40;20.90;51.40
15384;DHT22;7790;53.022;12.968;2023-04-01T07:04:46;20.90;51.50
15384;DHT22;7790;53.022;12.968;2023-04-01T07:08:49;20.90;51.50
15384;DHT22;7790;53.022;12.968;2023-04-01T07:12:56;20.90;51.70
15384;DHT22;7790;53.022;12.968;2023-04-01T07:17:27;20.80;51.00
15384;DHT22;7790;53.022;12.968;2023-04-01T07:22:02;20.80;51.90
15384;DHT22;7790;53.022;12.968;2023-04-01T07:26:23;20.80;52.00
15384;DHT22;7790;53.022;12.968;2023-04-01T07:35:24;20.60;52.20
15384;DHT22;7790;53.022;12.968;2023-04-01T07:39:36;20.60;52.30
15384;DHT22;7790;53.022;12.968;2023-04-01T08:01:45;20.40;51.70
15384;DHT22;7790;53.022;12.968;2023-04-01T08:10:23;20.30;52.00
15384;DHT22;7790;53.022;12.968;2023-04-01T08:19:29;20.60;51.50
15384;DHT22;7790;53.022;12.968;2023-04-01T08:23:37;20.80;51.40
15384;DHT22;7790;53.022;12.968;2023-04-01T08:27:45;20.90;51.10
15384;DHT22;7790;53.022;12.968;2023-04-01T08:35:56;21.00;50.70
15384;DHT22;7790;53.022;12.968;2023-04-01T08:53:48;20.90;51.00
15384;DHT22;7790;53.022;12.968;2023-04-01T08:58:04;20.90;51.10
15384;DHT22;7790;53.022;12.968;2023-04-01T09:16:13;20.50;51.50
15384;DHT22;7790;53.022;12.968;2023-04-01T09:30:27;20.40;51.70
15384;DHT22;7790;53.022;12.968;2023-04-01T09:52:01;20.80;50.50
15384;DHT22;7790;53.022;12.968;2023-04-01T10:14:15;20.80;51.30
15384;DHT22;7790;53.022;12.968;2023-04-01T10:19:03;20.80;51.30
15384;DHT22;7790;53.022;12.968;2023-04-01T10:40:53;20.60;51.30
15384;DHT22;7790;53.022;12.968;2023-04-01T10:46:02;20.60;51.30
15384;DHT22;7790;53.022;12.968;2023-04-01T10:50:23;20.50;51.30
15384;DHT22;7790;53.022;12.968;2023-04-01T10:54:47;20.50;51.30
15384;DHT22;7790;53.022;12.968;2023-04-01T11:09:44;20.30;51.30
15384;DHT22;7790;53.022;12.968;2023-04-01T11:22:54;20.50;51.10
15384;DHT22;7790;53.022;12.968;2023-04-01T11:32:09;20.80;51.00
15384;DHT22;7790;53.022;12.968;2023-04-01T11:40:39;20.90;50.80
15384;DHT22;7790;53.022;12.968;2023-04-01T11:45:20;20.90;50.70
15384;DHT22;7790;53.022;12.968;2023-04-01T11:54:20;20.90;50.30
15384;DHT22;7790;53.022;12.968;2023-04-01T11:58:56;20.90;50.40
15384;DHT22;7790;53.022;12.968;2023-04-01T12:07:15;20.50;48.60
15384;DHT22;7790;53.022;12.968;2023-04-01T12:19:59;20.50;50.20
15384;DHT22;7790;53.022;12.968;2023-04-01T12:28:20;20.50;50.00
15384;DHT22;7790;53.022;12.968;2023-04-01T12:32:41;20.40;50.10
15384;DHT22;7790;53.022;12.968;2023-04-01T12:36:57;20.40;50.20
15384;DHT22;7790;53.022;12.968;2023-04-01T12:41:09;20.50;50.20
15384;DHT22;7790;53.022;12.968;2023-04-01T12:45:33;20.50;50.10
15384;DHT22;7790;53.022;12.968;2023-04-01T12:49:40;20.60;50.10
15384;DHT22;7790;53.022;12.968;2023-04-01T12:54:14;20.60;50.00
15384;DHT22;7790;53.022;12.968;2023-04-01T13:03:32;20.90;49.70
15384;DHT22;7790;53.022;12.968;2023-04-01T13:12:03;21.00;49.70
15384;DHT22;7790;53.022;12.968;2023-04-01T13:16:26;21.00;49.60
15384;DHT22;7790;53.022;12.968;2023-04-01T13:20:36;21.00;49.40
15384;DHT22;7790;53.022;12.968;2023-04-01T13:29:17;20.90;49.50
15384;DHT22;7790;53.022;12.968;2023-04-01T14:13:22;20.50;49.70
15384;DHT22;7790;53.022;12.968;2023-04-01T14:22:03;20.60;49.60
15384;DHT22;7790;53.022;12.968;2023-04-01T14:26:50;20.60;49.50
15384;DHT22;7790;53.022;12.968;2023-04-01T14:48:39;21.00;49.00
15384;DHT22;7790;53.022;12.968;2023-04-01T14:52:56;21.00;49.00
15384;DHT22;7790;53.022;12.968;2023-04-01T14:57:24;21.00;49.00
15384;DHT22;7790;53.022;12.968;2023-04-01T15:10:16;20.90;49.70
15384;DHT22;7790;53.022;12.968;2023-04-01T15:22:51;20.60;49.00
15384;DHT22;7790;53.022;12.968;2023-04-01T15:27:14;20.60;49.00
15384;DHT22;7790;53.022;12.968;2023-04-01T15:31:30;20.50;49.00
15384;DHT22;7790;53.022;12.968;2023-04-01T15:39:54;20.40;49.20
15384;DHT22;7790;53.022;12.968;2023-04-01T15:43:58;20.40;49.20
15384;DHT22;7790;53.022;12.968;2023-04-01T15:56:59;20.70;49.00
15384;DHT22;7790;53.022;12.968;2023-04-01T16:10:05;20.90;48.60
15384;DHT22;7790;53.022;12.968;2023-04-01T16:14:31;21.00;48.60
15384;DHT22;7790;53.022;12.968;2023-04-01T16:27:04;21.00;48.50
15384;DHT22;7790;53.022;12.968;2023-04-01T16:31:14;21.00;48.50
15384;DHT22;7790;53.022;12.968;2023-04-01T16:35:31;20.90;48.50
15384;DHT22;7790;53.022;12.968;2023-04-01T16:44:17;20.80;48.60
15384;DHT22;7790;53.022;12.968;2023-04-01T16:48:45;20.70;48.70
15384;DHT22;7790;53.022;12.968;2023-04-01T16:53:09;20.70;48.70
15384;DHT22;7790;53.022;12.968;2023-04-01T16:57:23;20.60;48.60
15384;DHT22;7790;53.022;12.968;2023-04-01T17:01:52;20.50;48.60
15384;DHT22;7790;53.022;12.968;2023-04-01T17:14:39;20.40;48.70
15384;DHT22;7790;53.022;12.968;2023-04-01T17:19:14;20.50;48.90
15384;DHT22;7790;53.022;12.968;2023-04-01T17:36:01;20.90;48.20
15384;DHT22;7790;53.022;12.968;2023-04-01T17:40:08;21.10;48.00
15384;DHT22;7790;53.022;12.968;2023-04-01T18:10:55;21.00;47.50
15384;DHT22;7790;53.022;12.968;2023-04-01T18:27:52;20.80;47.40
15384;DHT22;7790;53.022;12.968;2023-04-01T18:32:28;20.80;47.40
15384;DHT22;7790;53.022;12.968;2023-04-01T18:36:47;20.70;47.20
15384;DHT22;7790;53.022;12.968;2023-04-01T18:45:34;20.70;47.40
15384;DHT22;7790;53.022;12.968;2023-04-01T18:49:41;20.70;47.30
15384;DHT22;7790;53.022;12.968;2023-04-01T18:53:53;20.80;47.30
15384;DHT22;7790;53.022;12.968;2023-04-01T18:58:18;20.90;47.30
15384;DHT22;7790;53.022;12.968;2023-04-01T19:06:45;21.10;46.30
15384;DHT22;7790;53.022;12.968;2023-04-01T19:10:57;21.20;46.50
15384;DHT22;7790;53.022;12.968;2023-04-01T19:15:37;21.40;46.30
15384;DHT22;7790;53.022;12.968;2023-04-01T19:24:03;21.60;46.50
15384;DHT22;7790;53.022;12.968;2023-04-01T19:37:09;21.80;46.50
15384;DHT22;7790;53.022;12.968;2023-04-01T20:07:00;21.60;46.20
15384;DHT22;7790;53.022;12.968;2023-04-01T20:15:35;21.40;46.70
15384;DHT22;7790;53.022;12.968;2023-04-01T20:19:44;21.30;47.20
15384;DHT22;7790;53.022;12.968;2023-04-01T20:23:54;21.20;47.30
15384;DHT22;7790;53.022;12.968;2023-04-01T20:32:44;21.30;47.50
15384;DHT22;7790;53.022;12.968;2023-04-01T20:41:28;21.50;47.70
15384;DHT22;7790;53.022;12.968;2023-04-01T20:50:06;21.50;47.90
15384;DHT22;7790;53.022;12.968;2023-04-01T20:58:24;21.50;47.50
15384;DHT22;7790;53.022;12.968;2023-04-01T21:11:25;21.60;46.30
15384;DHT22;7790;53.022;12.968;2023-04-01T21:15:42;21.60;46.40
15384;DHT22;7790;53.022;12.968;2023-04-01T21:28:21;21.50;46.30
15384;DHT22;7790;53.022;12.968;2023-04-01T21:45:50;21.30;46.60
15384;DHT22;7790;53.022;12.968;2023-04-01T21:50:39;21.40;46.60
15384;DHT22;7790;53.022;12.968;2023-04-01T21:54:42;21.40;46.50
15384;DHT22;7790;53.022;12.968;2023-04-01T22:03:28;21.50;46.30
15384;DHT22;7790;53.022;12.968;2023-04-01T22:11:48;21.50;46.30
15384;DHT22;7790;53.022;12.968;2023-04-01T22:20:23;21.50;46.10
15384;DHT22;7790;53.022;12.968;2023-04-01T22:33:18;21.50;46.00
15384;DHT22;7790;53.022;12.968;2023-04-01T22:37:51;21.50;46.20
15384;DHT22;7790;53.022;12.968;2023-04-01T22:50:53;21.40;46.20
15384;DHT22;7790;53.022;12.968;2023-04-01T22:55:17;21.40;46.20
15384;DHT22;7790;53.022;12.968;2023-04-01T22:59:48;21.40;46.20
15384;DHT22;7790;53.022;12.968;2023-04-01T23:03:51;21.40;46.20
15384;DHT22;7790;53.022;12.968;2023-04-01T23:12:13;21.40;46.00
15384;DHT22;7790;53.022;12.968;2023-04-01T23:16:17;21.50;46.10
15384;DHT22;7790;53.022;12.968;2023-04-01T23:20:47;21.50;46.10
15384;DHT22;7790;53.022;12.968;2023-04-01T23:29:14;21.60;46.00
15384;DHT22;7790;53.022;12.968;2023-04-01T23:37:20;21.60;45.90
15384;DHT22;7790;53.022;12.968;2023-04-01T23:41:30;21.60;45.70
15384;DHT22;7790;53.022;12.968;2023-04-01T23:45:32;21.60;45.70
15384;DHT22;7790;53.022;12.968;2023-04-01T23:49:37;21.50;45.80
15384;DHT22;7790;53.022;12.968;2023-04-01T23:53:44;21.40;45.80
